createdAt,value
2022-08-18T00:04:34.902Z,86.42
2022-08-18T00:09:32.231Z,86.87
2022-08-18T00:14:24.509Z,87.32
2022-08-18T00:19:16.378Z,87.11
2022-08-18T00:24:09.029Z,87.55
2022-08-18T00:29:00.879Z,87.92
2022-08-18T00:33:52.508Z,87.97
2022-08-18T00:38:44.207Z,88.34
2022-08-18T00:43:43.086Z,89.19
2022-08-18T00:48:35.421Z,88.95
2022-08-18T00:53:27.531Z,89.11
2022-08-18T00:58:24.826Z,88.93
2022-08-18T01:03:24.593Z,89.35
2022-08-18T01:08:17.277Z,90.03
2022-08-18T01:13:20.853Z,90.32
2022-08-18T01:18:33.150Z,90.44
2022-08-18T01:23:25.557Z,90.05
2022-08-18T01:28:20.783Z,90.00
2022-08-18T01:33:12.496Z,90.60
2022-08-18T01:38:04.189Z,90.43
2022-08-18T01:42:57.213Z,90.57
2022-08-18T01:47:50.518Z,90.67
2022-08-18T01:52:43.479Z,91.17
2022-08-18T01:57:43.065Z,91.22
2022-08-18T02:02:34.863Z,91.25
2022-08-18T02:07:30.798Z,91.93
2022-08-18T02:12:28.291Z,91.39
2022-08-18T02:17:20.335Z,92.22
2022-08-18T02:22:16.152Z,92.60
2022-08-18T02:27:09.399Z,92.66
2022-08-18T02:32:01.063Z,92.41
2022-08-18T02:36:53.752Z,92.75
2022-08-18T02:41:45.669Z,92.88
2022-08-18T02:46:37.833Z,92.50
2022-08-18T02:51:29.978Z,92.75
2022-08-18T02:56:40.551Z,93.01
2022-08-18T03:01:40.625Z,93.35
2022-08-18T03:06:33.950Z,93.11
2022-08-18T03:11:28.413Z,93.89
2022-08-18T03:16:21.404Z,93.69
2022-08-18T03:21:17.154Z,93.70
2022-08-18T03:26:12.104Z,93.61
2022-08-18T03:31:03.804Z,93.95
2022-08-18T03:35:55.538Z,94.61
2022-08-18T03:40:53.297Z,94.55
2022-08-18T03:45:45.173Z,94.74
2022-08-18T03:50:38.146Z,94.71
2022-08-18T03:55:29.806Z,94.42
2022-08-18T04:00:30.116Z,94.79
2022-08-18T04:05:21.890Z,94.34
2022-08-18T04:10:19.157Z,94.66
2022-08-18T04:15:11.892Z,94.69
2022-08-18T04:20:04.631Z,95.13
2022-08-18T04:24:56.233Z,95.04
2022-08-18T04:29:50.049Z,94.93
2022-08-18T04:34:41.761Z,95.30
2022-08-18T04:39:33.472Z,95.79
2022-08-18T04:44:25.239Z,95.64
2022-08-18T04:49:18.846Z,95.87
2022-08-18T04:54:12.537Z,96.05
2022-08-18T04:59:10.689Z,95.89
2022-08-18T05:04:02.519Z,95.82
2022-08-18T05:08:57.127Z,96.01
2022-08-18T05:13:49.828Z,95.69
2022-08-18T05:18:42.755Z,96.22
2022-08-18T05:23:36.204Z,95.87
2022-08-18T05:28:27.918Z,96.15
2022-08-18T05:33:19.668Z,96.56
2022-08-18T05:38:26.275Z,95.90
2022-08-18T05:43:18.211Z,96.12
2022-08-18T05:48:09.830Z,96.07
2022-08-18T05:53:13.348Z,96.03
2022-08-18T05:58:11.075Z,96.10
2022-08-18T06:03:13.651Z,96.24
2022-08-18T06:08:12.698Z,96.10
2022-08-18T06:13:08.077Z,95.92
2022-08-18T06:18:22.622Z,95.63
2022-08-18T06:23:41.522Z,95.79
2022-08-18T06:29:12.252Z,95.70
2022-08-18T06:34:12.990Z,95.36
2022-08-18T06:39:30.054Z,95.57
2022-08-18T06:44:21.629Z,95.72
2022-08-18T06:49:24.735Z,95.96
2022-08-18T06:54:19.061Z,95.56
2022-08-18T06:59:19.452Z,95.06
2022-08-18T07:04:31.518Z,94.09
2022-08-18T07:09:34.116Z,93.29
2022-08-18T07:14:26.050Z,93.17
2022-08-18T07:19:23.073Z,92.96
2022-08-18T07:24:28.189Z,91.69
2022-08-18T07:29:19.806Z,91.28
2022-08-18T07:34:28.815Z,90.53
2022-08-18T07:39:28.639Z,90.16
2022-08-18T07:44:47.489Z,90.11
2022-08-18T07:49:59.686Z,89.61
2022-08-18T07:55:06.525Z,90.25
2022-08-18T08:00:01.980Z,89.84
2022-08-18T08:05:02.759Z,88.40
2022-08-18T08:10:03.429Z,88.89
2022-08-18T08:15:08.666Z,88.96
2022-08-18T08:20:03.669Z,88.70
2022-08-18T08:25:47.610Z,88.00
2022-08-18T08:30:49.247Z,87.45
2022-08-18T08:35:55.971Z,86.09
2022-08-18T08:41:06.447Z,84.11
2022-08-18T08:46:10.728Z,82.81
2022-08-18T08:51:30.220Z,79.61
2022-08-18T08:56:28.137Z,79.24
2022-08-18T09:01:29.132Z,78.60
2022-08-18T09:06:35.901Z,77.05
2022-08-18T09:11:56.010Z,76.34
2022-08-18T09:17:24.063Z,76.17
2022-08-18T09:28:23.471Z,74.84
2022-08-18T09:33:32.605Z,74.74
2022-08-18T09:38:48.987Z,74.83
2022-08-18T09:44:17.990Z,74.64
2022-08-18T09:49:23.806Z,73.35
2022-08-18T09:54:21.781Z,73.22
2022-08-18T09:59:38.089Z,70.58
2022-08-18T10:04:51.692Z,71.55
2022-08-18T10:10:56.957Z,70.07
2022-08-18T10:15:47.117Z,68.04
2022-08-18T10:20:56.928Z,67.01
2022-08-18T10:25:48.687Z,65.81
2022-08-18T10:30:56.688Z,64.76
2022-08-18T10:41:21.840Z,65.78
2022-08-18T10:46:25.060Z,66.90
2022-08-18T10:51:29.507Z,68.04
2022-08-18T10:56:54.553Z,68.76
2022-08-18T11:02:09.129Z,68.48
2022-08-18T11:07:10.941Z,68.39
2022-08-18T11:12:04.369Z,69.19
2022-08-18T11:16:59.777Z,69.00
2022-08-18T11:21:53.133Z,68.83
2022-08-18T11:26:52.541Z,68.83
2022-08-18T11:31:52.713Z,70.01
2022-08-18T11:36:54.789Z,71.17
2022-08-18T11:41:50.262Z,72.78
2022-08-18T11:46:43.033Z,73.05
2022-08-18T11:51:56.654Z,72.04
2022-08-18T11:57:33.357Z,70.84
2022-08-18T12:02:26.434Z,69.59
2022-08-18T12:07:29.187Z,69.24
2022-08-18T12:12:30.875Z,69.10
2022-08-18T12:17:23.054Z,68.60
2022-08-18T12:22:23.050Z,67.15
2022-08-18T12:27:21.347Z,66.15
2022-08-18T12:32:17.785Z,66.11
2022-08-18T12:42:41.834Z,65.80
2022-08-18T12:47:38.566Z,66.50
2022-08-18T12:52:34.995Z,65.32
2022-08-18T12:57:51.651Z,65.01
2022-08-18T13:02:42.091Z,64.06
2022-08-18T13:07:34.871Z,63.31
2022-08-18T13:12:27.882Z,63.71
2022-08-18T13:17:30.519Z,62.24
2022-08-18T13:22:31.851Z,61.81
2022-08-18T13:27:26.316Z,60.84
2022-08-18T13:32:26.278Z,61.51
2022-08-18T13:37:20.469Z,61.27
2022-08-18T13:42:21.495Z,61.97
2022-08-18T13:47:21.841Z,61.86
2022-08-18T13:52:33.069Z,62.56
2022-08-18T13:57:25.974Z,62.63
2022-08-18T14:02:18.649Z,63.45
2022-08-18T14:07:12.562Z,63.58
2022-08-18T14:12:38.129Z,63.97
2022-08-18T14:17:31.933Z,63.46
2022-08-18T14:22:42.791Z,64.03
2022-08-18T14:27:38.379Z,63.61
2022-08-18T14:32:31.689Z,63.43
2022-08-18T14:37:31.050Z,63.88
2022-08-18T14:42:32.759Z,64.37
2022-08-18T14:47:33.678Z,64.38
2022-08-18T14:52:29.556Z,64.40
2022-08-18T15:02:18.471Z,67.89
2022-08-18T15:07:10.929Z,70.17
2022-08-18T15:12:05.418Z,70.67
2022-08-18T15:17:00.394Z,71.97
2022-08-18T15:22:10.832Z,72.23
2022-08-18T15:27:13.353Z,74.81
2022-08-18T15:32:17.564Z,74.39
2022-08-18T15:37:10.199Z,73.97
2022-08-18T15:42:10.239Z,73.31
2022-08-18T15:47:04.753Z,74.26
2022-08-18T15:51:56.697Z,70.92
2022-08-18T15:56:57.657Z,69.88
2022-08-18T16:01:50.238Z,70.86
2022-08-18T16:06:45.175Z,71.08
2022-08-18T16:11:37.586Z,72.47
2022-08-18T16:16:36.073Z,72.56
2022-08-18T16:21:28.340Z,73.02
2022-08-18T16:26:22.092Z,73.25
2022-08-18T16:31:16.462Z,73.00
2022-08-18T16:36:10.264Z,73.54
2022-08-18T16:41:13.901Z,73.30
2022-08-18T16:46:14.443Z,73.34
2022-08-18T16:51:06.412Z,73.74
2022-08-18T16:56:00.075Z,73.85
2022-08-18T17:01:14.920Z,74.46
2022-08-18T17:06:14.088Z,75.17
2022-08-18T17:11:09.831Z,76.71
2022-08-18T17:16:01.838Z,78.11
2022-08-18T17:20:55.470Z,79.07
2022-08-18T17:25:47.394Z,80.21
2022-08-18T17:30:47.898Z,80.29
2022-08-18T17:35:43.075Z,80.90
2022-08-18T17:40:55.038Z,80.83
2022-08-18T17:45:54.095Z,81.34
2022-08-18T17:51:17.541Z,81.41
2022-08-18T17:56:16.825Z,82.43
2022-08-18T18:01:11.027Z,82.72
2022-08-18T18:06:18.741Z,83.28
2022-08-18T18:11:11.472Z,83.45
2022-08-18T18:16:27.752Z,83.36
2022-08-18T18:21:23.293Z,83.68
2022-08-18T18:26:45.946Z,83.75
2022-08-18T18:31:39.722Z,84.23
2022-08-18T18:36:44.040Z,85.90
2022-08-18T18:41:39.704Z,86.62
2022-08-18T18:46:39.183Z,87.11
2022-08-18T18:51:35.767Z,86.60
2022-08-18T18:56:38.236Z,86.95
2022-08-18T19:01:56.556Z,87.17
2022-08-18T19:07:04.446Z,87.38
2022-08-18T19:12:14.513Z,88.35
2022-08-18T19:17:22.083Z,89.28
2022-08-18T19:22:36.268Z,89.61
2022-08-18T19:27:35.442Z,90.80
2022-08-18T19:32:35.064Z,90.27
2022-08-18T19:37:38.298Z,90.93
2022-08-18T19:42:39.889Z,91.18
2022-08-18T19:47:41.973Z,91.53
2022-08-18T19:52:55.259Z,92.78
2022-08-18T19:58:21.062Z,93.07
2022-08-18T20:03:19.990Z,93.48
2022-08-18T20:08:33.426Z,94.46
2022-08-18T20:13:38.390Z,95.01
2022-08-18T20:18:35.897Z,95.70
2022-08-18T20:23:37.710Z,95.85
2022-08-18T20:28:39.193Z,97.42
2022-08-18T20:33:35.188Z,98.12
2022-08-18T20:38:35.390Z,98.47
2022-08-18T20:43:32.747Z,98.64
2022-08-18T20:48:32.468Z,98.62
2022-08-18T20:53:52.565Z,98.33
2022-08-18T20:58:57.334Z,98.31
2022-08-18T21:03:48.979Z,98.49
2022-08-18T21:08:51.192Z,97.93
2022-08-18T21:13:42.817Z,97.83
2022-08-18T21:18:35.072Z,98.33
2022-08-18T21:23:39.867Z,98.74
2022-08-18T21:28:34.957Z,99.54
2022-08-18T21:33:30.115Z,99.60
2022-08-18T21:38:28.576Z,99.33
2022-08-18T21:43:49.654Z,99.06
2022-08-18T21:48:49.500Z,98.23
2022-08-18T21:53:41.190Z,98.17
2022-08-18T21:58:47.032Z,98.07
2022-08-18T22:03:59.591Z,97.86
2022-08-18T22:09:21.457Z,98.28
2022-08-18T22:14:25.344Z,97.20
2022-08-18T22:19:18.647Z,96.77
2022-08-18T22:24:21.839Z,96.83
2022-08-18T22:29:42.427Z,95.86
2022-08-18T22:34:37.736Z,94.51
2022-08-18T22:39:37.669Z,93.78
2022-08-18T22:44:30.047Z,93.74
2022-08-18T22:49:22.858Z,92.87
2022-08-18T22:54:15.414Z,93.38
2022-08-18T22:59:14.070Z,92.55
2022-08-18T23:04:11.218Z,93.13
2022-08-18T23:09:03.892Z,92.90
2022-08-18T23:13:56.379Z,92.80
2022-08-18T23:18:48.428Z,92.73
2022-08-18T23:23:42.273Z,92.31
2022-08-18T23:28:34.599Z,92.49
2022-08-18T23:33:26.660Z,92.69
2022-08-18T23:38:19.318Z,92.83
2022-08-18T23:43:13.496Z,93.52
2022-08-18T23:48:06.894Z,94.01
2022-08-18T23:53:01.139Z,94.02
2022-08-18T23:57:52.795Z,94.68
